createdAt,value
2018-07-20T00:00:00.141Z,17.85
2018-07-20T00:00:04.349Z,17.84
2018-07-20T00:00:08.661Z,17.84
2018-07-20T00:00:12.983Z,17.84
2018-07-20T00:00:17.087Z,17.83
2018-07-20T00:00:21.293Z,17.83
2018-07-20T00:00:25.603Z,17.83
2018-07-20T00:00:29.914Z,17.83
2018-07-20T00:00:34.005Z,17.83
2018-07-20T00:00:38.317Z,17.82
2018-07-20T00:00:42.520Z,17.82
2018-07-20T00:00:46.508Z,17.82
2018-07-20T00:00:50.720Z,17.82
2018-07-20T00:00:54.924Z,17.82
2018-07-20T00:00:59.028Z,17.81
2018-07-20T00:01:03.124Z,17.81
2018-07-20T00:01:07.223Z,17.81
2018-07-20T00:01:11.433Z,17.8
2018-07-20T00:01:15.634Z,17.8
2018-07-20T00:01:19.833Z,17.79
2018-07-20T00:01:23.927Z,17.8
2018-07-20T00:01:28.241Z,17.79
2018-07-20T00:01:32.604Z,17.79
2018-07-20T00:01:36.700Z,17.79
2018-07-20T00:01:41.008Z,17.79
2018-07-20T00:01:45.208Z,17.79
2018-07-20T00:01:49.527Z,17.78
2018-07-20T00:01:53.831Z,17.78
2018-07-20T00:01:58.181Z,17.77
2018-07-20T00:02:02.385Z,17.77
2018-07-20T00:02:06.693Z,17.76
2018-07-20T00:02:10.998Z,17.77
2018-07-20T00:02:15.305Z,17.76
2018-07-20T00:02:19.617Z,17.76
2018-07-20T00:02:23.827Z,17.77
2018-07-20T00:02:28.035Z,17.76
2018-07-20T00:02:32.352Z,17.75
2018-07-20T00:02:36.673Z,17.75
2018-07-20T00:02:40.985Z,17.76
2018-07-20T00:02:45.181Z,17.75
2018-07-20T00:02:49.291Z,17.75
2018-07-20T00:02:53.608Z,17.73
2018-07-20T00:02:57.812Z,17.74
2018-07-20T00:03:01.810Z,17.74
2018-07-20T00:03:06.134Z,17.74
2018-07-20T00:03:10.333Z,17.73
2018-07-20T00:03:14.533Z,17.74
2018-07-20T00:03:18.843Z,17.73
2018-07-20T00:03:23.048Z,17.73
2018-07-20T00:03:27.353Z,17.73
2018-07-20T00:03:31.452Z,17.72
2018-07-20T00:03:35.759Z,17.73
2018-07-20T00:03:39.959Z,17.73
2018-07-20T00:03:44.306Z,17.72
2018-07-20T00:03:48.514Z,17.73
2018-07-20T00:03:52.718Z,17.72
2018-07-20T00:03:56.819Z,17.72
2018-07-20T00:04:01.028Z,17.72
2018-07-20T00:04:05.337Z,17.71
2018-07-20T00:04:09.432Z,17.71
2018-07-20T00:04:13.628Z,17.72
2018-07-20T00:04:17.930Z,17.71
2018-07-20T00:04:22.240Z,17.71
2018-07-20T00:04:26.222Z,17.71
2018-07-20T00:04:30.545Z,17.71
2018-07-20T00:04:34.744Z,17.69
2018-07-20T00:04:38.838Z,17.69
2018-07-20T00:04:43.037Z,17.69
2018-07-20T00:04:47.246Z,17.69
2018-07-20T00:04:51.456Z,17.68
2018-07-20T00:04:55.764Z,17.68
2018-07-20T00:04:59.967Z,17.67
2018-07-20T00:05:03.953Z,17.69
2018-07-20T00:05:08.048Z,17.68
2018-07-20T00:05:12.252Z,17.68
2018-07-20T00:05:16.352Z,17.68
2018-07-20T00:05:20.549Z,17.67
2018-07-20T00:05:24.647Z,17.67
2018-07-20T00:05:28.953Z,17.67
2018-07-20T00:05:33.206Z,17.67
2018-07-20T00:05:37.518Z,17.67
2018-07-20T00:05:41.616Z,17.66
2018-07-20T00:05:45.924Z,17.66
2018-07-20T00:05:49.918Z,17.67
2018-07-20T00:05:54.233Z,17.66
2018-07-20T00:05:58.438Z,17.65
2018-07-20T00:06:02.531Z,17.66
2018-07-20T00:06:06.637Z,17.65
2018-07-20T00:06:10.839Z,17.64
2018-07-20T00:06:15.046Z,17.65
2018-07-20T00:06:19.355Z,17.63
2018-07-20T00:06:23.557Z,17.65
2018-07-20T00:06:27.866Z,17.65
2018-07-20T00:06:32.069Z,17.65
2018-07-20T00:06:36.273Z,17.64
2018-07-20T00:06:40.374Z,17.63
2018-07-20T00:06:44.684Z,17.64
2018-07-20T00:06:48.680Z,17.64
2018-07-20T00:06:52.882Z,17.63
2018-07-20T00:06:57.195Z,17.63
2018-07-20T00:07:01.508Z,17.63
2018-07-20T00:07:05.652Z,17.63
2018-07-20T00:07:09.756Z,17.63
2018-07-20T00:07:13.956Z,17.63
2018-07-20T00:07:17.943Z,17.62
2018-07-20T00:07:22.153Z,17.63
2018-07-20T00:07:26.393Z,17.62
2018-07-20T00:07:30.556Z,17.62
2018-07-20T00:07:34.756Z,17.62
2018-07-20T00:07:38.958Z,17.63
2018-07-20T00:07:43.165Z,17.62
2018-07-20T00:07:47.471Z,17.62
2018-07-20T00:07:51.565Z,17.62
2018-07-20T00:07:55.869Z,17.61
2018-07-20T00:08:00.251Z,17.61
2018-07-20T00:08:04.580Z,17.61
2018-07-20T00:08:08.992Z,17.61
2018-07-20T00:08:13.899Z,17.61
2018-07-20T00:08:18.021Z,17.61
2018-07-20T00:08:22.333Z,17.6
2018-07-20T00:08:26.534Z,17.61
2018-07-20T00:08:30.741Z,17.61
2018-07-20T00:08:35.052Z,17.61
2018-07-20T00:08:39.259Z,17.61
2018-07-20T00:08:43.583Z,17.6
2018-07-20T00:08:47.892Z,17.6
2018-07-20T00:08:52.203Z,17.61
2018-07-20T00:08:56.401Z,17.61
2018-07-20T00:09:00.499Z,17.61
2018-07-20T00:09:04.868Z,17.61
2018-07-20T00:09:08.861Z,17.61
2018-07-20T00:09:13.218Z,17.61
2018-07-20T00:09:17.544Z,17.61
2018-07-20T00:09:21.744Z,17.61
2018-07-20T00:09:25.961Z,17.6
2018-07-20T00:09:30.057Z,17.61
2018-07-20T00:09:34.263Z,17.62
2018-07-20T00:09:38.369Z,17.61
2018-07-20T00:09:42.470Z,17.61
2018-07-20T00:09:46.566Z,17.61
2018-07-20T00:09:50.661Z,17.62
2018-07-20T00:09:54.980Z,17.61
2018-07-20T00:09:59.184Z,17.61
2018-07-20T00:10:03.286Z,17.61
2018-07-20T00:10:07.297Z,17.61
2018-07-20T00:10:11.608Z,17.61
2018-07-20T00:10:15.811Z,17.62
2018-07-20T00:10:20.016Z,17.62
2018-07-20T00:10:24.221Z,17.62
2018-07-20T00:10:28.536Z,17.62
2018-07-20T00:10:32.848Z,17.61
2018-07-20T00:10:37.053Z,17.62
2018-07-20T00:10:41.049Z,17.62
2018-07-20T00:10:45.358Z,17.62
2018-07-20T00:10:49.679Z,17.63
2018-07-20T00:10:53.889Z,17.62
2018-07-20T00:10:57.984Z,17.63
2018-07-20T00:11:02.311Z,17.63
2018-07-20T00:11:06.403Z,17.63
2018-07-20T00:11:10.712Z,17.63
2018-07-20T00:11:15.030Z,17.63
2018-07-20T00:11:19.234Z,17.63
2018-07-20T00:11:23.447Z,17.64
2018-07-20T00:11:27.770Z,17.63
2018-07-20T00:11:31.973Z,17.64
2018-07-20T00:11:36.279Z,17.64
2018-07-20T00:11:40.480Z,17.64
2018-07-20T00:11:44.788Z,17.65
2018-07-20T00:11:49.096Z,17.65
2018-07-20T00:11:53.309Z,17.65
2018-07-20T00:11:57.630Z,17.65
2018-07-20T00:12:01.836Z,17.65
2018-07-20T00:12:05.819Z,17.66
2018-07-20T00:12:10.018Z,17.66
2018-07-20T00:12:14.327Z,17.66
2018-07-20T00:12:18.647Z,17.66
2018-07-20T00:12:22.953Z,17.66
2018-07-20T00:12:27.159Z,17.67
2018-07-20T00:12:31.359Z,17.67
2018-07-20T00:12:35.664Z,17.67
2018-07-20T00:12:39.654Z,17.68
2018-07-20T00:12:43.959Z,17.67
2018-07-20T00:12:48.159Z,17.68
2018-07-20T00:12:52.359Z,17.69
2018-07-20T00:12:56.461Z,17.69
2018-07-20T00:13:00.557Z,17.68
2018-07-20T00:13:04.880Z,17.69
2018-07-20T00:13:09.086Z,17.69
2018-07-20T00:13:13.185Z,17.69
2018-07-20T00:13:17.549Z,17.69
2018-07-20T00:13:21.861Z,17.7
2018-07-20T00:13:26.066Z,17.71
2018-07-20T00:13:30.268Z,17.71
2018-07-20T00:13:34.578Z,17.71
2018-07-20T00:13:38.887Z,17.71
2018-07-20T00:13:43.191Z,17.71
2018-07-20T00:13:47.505Z,17.71
2018-07-20T00:13:51.841Z,17.71
2018-07-20T00:13:56.159Z,17.72
2018-07-20T00:14:00.486Z,17.72
2018-07-20T00:14:04.467Z,17.72
2018-07-20T00:14:08.676Z,17.72
2018-07-20T00:14:12.874Z,17.72
2018-07-20T00:14:17.177Z,17.72
2018-07-20T00:14:21.486Z,17.72
2018-07-20T00:14:25.687Z,17.72
2018-07-20T00:14:29.886Z,17.72
2018-07-20T00:14:34.090Z,17.74
2018-07-20T00:14:38.184Z,17.73
2018-07-20T00:14:42.279Z,17.73
2018-07-20T00:14:46.597Z,17.74
2018-07-20T00:14:50.698Z,17.73
2018-07-20T00:14:54.897Z,17.73
2018-07-20T00:14:59.213Z,17.73
2018-07-20T00:15:03.428Z,17.74
2018-07-20T00:15:07.639Z,17.73
2018-07-20T00:15:11.846Z,17.73
2018-07-20T00:15:16.100Z,17.74
2018-07-20T00:15:20.311Z,17.73
2018-07-20T00:15:24.513Z,17.73
2018-07-20T00:15:28.820Z,17.74
2018-07-20T00:15:33.125Z,17.74
2018-07-20T00:15:37.346Z,17.74
2018-07-20T00:15:41.653Z,17.73
2018-07-20T00:15:45.965Z,17.73
2018-07-20T00:15:50.056Z,17.73
2018-07-20T00:15:54.257Z,17.73
2018-07-20T00:15:58.574Z,17.74
2018-07-20T00:16:02.889Z,17.74
2018-07-20T00:16:06.991Z,17.74
2018-07-20T00:16:10.980Z,17.74
2018-07-20T00:16:15.298Z,17.73
2018-07-20T00:16:19.498Z,17.73
2018-07-20T00:16:23.810Z,17.74
2018-07-20T00:16:27.904Z,17.73
2018-07-20T00:16:32.102Z,17.74
2018-07-20T00:16:36.455Z,17.74
2018-07-20T00:16:40.838Z,17.74
2018-07-20T00:16:45.446Z,17.73
2018-07-20T00:16:49.858Z,17.73
2018-07-20T00:16:54.265Z,17.73
2018-07-20T00:16:58.483Z,17.73
2018-07-20T00:17:02.582Z,17.73
2018-07-20T00:17:06.684Z,17.73
2018-07-20T00:17:10.996Z,17.73
2018-07-20T00:17:15.199Z,17.73
2018-07-20T00:17:19.406Z,17.72
2018-07-20T00:17:23.606Z,17.74
2018-07-20T00:17:27.919Z,17.73
2018-07-20T00:17:32.124Z,17.73
2018-07-20T00:17:36.328Z,17.73
2018-07-20T00:17:40.533Z,17.72
2018-07-20T00:17:44.845Z,17.73
2018-07-20T00:17:49.056Z,17.73
2018-07-20T00:17:53.265Z,17.72
2018-07-20T00:17:57.358Z,17.73
2018-07-20T00:18:01.558Z,17.73
2018-07-20T00:18:05.810Z,17.73
2018-07-20T00:18:10.011Z,17.73
2018-07-20T00:18:14.109Z,17.73
2018-07-20T00:18:18.307Z,17.72
2018-07-20T00:18:22.506Z,17.72
2018-07-20T00:18:26.817Z,17.72
2018-07-20T00:18:30.928Z,17.73
2018-07-20T00:18:35.262Z,17.73
2018-07-20T00:18:39.470Z,17.72
2018-07-20T00:18:43.673Z,17.73
2018-07-20T00:18:47.982Z,17.72
2018-07-20T00:18:52.195Z,17.73
2018-07-20T00:18:56.409Z,17.72
2018-07-20T00:19:00.725Z,17.72
2018-07-20T00:19:04.929Z,17.72
2018-07-20T00:19:09.048Z,17.72
2018-07-20T00:19:13.357Z,17.72
2018-07-20T00:19:17.670Z,17.72
2018-07-20T00:19:21.875Z,17.72
2018-07-20T00:19:25.868Z,17.72
2018-07-20T00:19:29.751Z,17.72
2018-07-20T00:19:33.843Z,17.72
2018-07-20T00:19:38.155Z,17.72
2018-07-20T00:19:42.360Z,17.71
2018-07-20T00:19:46.561Z,17.71
2018-07-20T00:19:50.763Z,17.71
2018-07-20T00:19:55.079Z,17.71
2018-07-20T00:19:59.333Z,17.71
2018-07-20T00:20:03.693Z,17.72
2018-07-20T00:20:07.580Z,17.71
2018-07-20T00:20:11.681Z,17.71
2018-07-20T00:20:15.993Z,17.71
2018-07-20T00:20:19.997Z,17.72
2018-07-20T00:20:24.093Z,17.71
2018-07-20T00:20:28.298Z,17.71
2018-07-20T00:20:32.611Z,17.72
2018-07-20T00:20:36.820Z,17.71
2018-07-20T00:20:41.026Z,17.72
2018-07-20T00:20:45.338Z,17.72
2018-07-20T00:20:49.546Z,17.71
2018-07-20T00:20:53.759Z,17.7
2018-07-20T00:20:57.855Z,17.71
2018-07-20T00:21:02.057Z,17.7
2018-07-20T00:21:06.149Z,17.71
2018-07-20T00:21:10.038Z,17.71
2018-07-20T00:21:14.341Z,17.71
2018-07-20T00:21:18.545Z,17.72
2018-07-20T00:21:22.744Z,17.71
2018-07-20T00:21:26.951Z,17.72
2018-07-20T00:21:31.158Z,17.72
2018-07-20T00:21:35.463Z,17.72
2018-07-20T00:21:39.661Z,17.71
2018-07-20T00:21:43.866Z,17.72
2018-07-20T00:21:48.066Z,17.71
2018-07-20T00:21:52.269Z,17.71
2018-07-20T00:21:56.582Z,17.71
2018-07-20T00:22:00.783Z,17.71
2018-07-20T00:22:05.115Z,17.71
2018-07-20T00:22:09.423Z,17.72
2018-07-20T00:22:13.967Z,17.72
2018-07-20T00:22:18.592Z,17.71
2018-07-20T00:22:22.797Z,17.72
2018-07-20T00:22:27.004Z,17.71
2018-07-20T00:22:31.313Z,17.72
2018-07-20T00:22:35.409Z,17.72
2018-07-20T00:22:39.717Z,17.72
2018-07-20T00:22:43.916Z,17.71
2018-07-20T00:22:48.010Z,17.72
2018-07-20T00:22:52.212Z,17.72
2018-07-20T00:22:56.468Z,17.72
2018-07-20T00:23:00.672Z,17.72
2018-07-20T00:23:04.551Z,17.72
2018-07-20T00:23:08.798Z,17.72
2018-07-20T00:23:12.999Z,17.72
2018-07-20T00:23:17.202Z,17.72
2018-07-20T00:23:21.411Z,17.72
2018-07-20T00:23:25.404Z,17.72
2018-07-20T00:23:29.709Z,17.72
2018-07-20T00:23:34.017Z,17.72
2018-07-20T00:23:38.234Z,17.72
2018-07-20T00:23:42.342Z,17.72
2018-07-20T00:23:46.541Z,17.71
2018-07-20T00:23:50.847Z,17.72
2018-07-20T00:23:55.049Z,17.72
2018-07-20T00:23:59.248Z,17.72
2018-07-20T00:24:03.451Z,17.72
2018-07-20T00:24:07.441Z,17.72
2018-07-20T00:24:11.645Z,17.73
2018-07-20T00:24:15.849Z,17.73
2018-07-20T00:24:20.053Z,17.72
2018-07-20T00:24:24.043Z,17.73
2018-07-20T00:24:28.244Z,17.72
2018-07-20T00:24:32.561Z,17.72
2018-07-20T00:24:36.763Z,17.72
2018-07-20T00:24:40.966Z,17.73
2018-07-20T00:24:45.064Z,17.72
2018-07-20T00:24:49.376Z,17.72
2018-07-20T00:24:53.583Z,17.73
2018-07-20T00:24:57.691Z,17.72
2018-07-20T00:25:01.998Z,17.73
2018-07-20T00:25:06.104Z,17.74
2018-07-20T00:25:10.196Z,17.73
2018-07-20T00:25:14.405Z,17.73
2018-07-20T00:25:18.612Z,17.73
2018-07-20T00:25:22.709Z,17.73
2018-07-20T00:25:26.807Z,17.73
2018-07-20T00:25:31.115Z,17.73
2018-07-20T00:25:35.221Z,17.74
2018-07-20T00:25:39.569Z,17.73
2018-07-20T00:25:43.882Z,17.74
2018-07-20T00:25:47.978Z,17.74
2018-07-20T00:25:52.182Z,17.74
2018-07-20T00:25:56.386Z,17.74
2018-07-20T00:26:00.587Z,17.74
2018-07-20T00:26:04.591Z,17.74
2018-07-20T00:26:08.792Z,17.73
2018-07-20T00:26:13.101Z,17.74
2018-07-20T00:26:17.195Z,17.75
2018-07-20T00:26:21.505Z,17.74
2018-07-20T00:26:25.863Z,17.75
2018-07-20T00:26:29.849Z,17.74
2018-07-20T00:26:34.068Z,17.74
2018-07-20T00:26:38.372Z,17.74
2018-07-20T00:26:42.726Z,17.74
2018-07-20T00:26:47.035Z,17.75
2018-07-20T00:26:51.234Z,17.74
2018-07-20T00:26:55.561Z,17.75
2018-07-20T00:26:59.762Z,17.74
2018-07-20T00:27:03.970Z,17.75
2018-07-20T00:27:08.182Z,17.74
2018-07-20T00:27:12.487Z,17.74
2018-07-20T00:27:16.696Z,17.74
2018-07-20T00:27:20.794Z,17.75
2018-07-20T00:27:24.898Z,17.74
2018-07-20T00:27:29.000Z,17.75
2018-07-20T00:27:33.319Z,17.75
2018-07-20T00:27:37.627Z,17.74
2018-07-20T00:27:41.941Z,17.75
2018-07-20T00:27:46.041Z,17.74
2018-07-20T00:27:49.923Z,17.75
2018-07-20T00:27:54.235Z,17.75
2018-07-20T00:27:58.333Z,17.75
2018-07-20T00:28:02.429Z,17.75
2018-07-20T00:28:06.522Z,17.75
2018-07-20T00:28:10.730Z,17.75
2018-07-20T00:28:15.039Z,17.75
2018-07-20T00:28:19.358Z,17.75
2018-07-20T00:28:23.674Z,17.75
2018-07-20T00:28:27.985Z,17.75
2018-07-20T00:28:32.299Z,17.75
2018-07-20T00:28:36.502Z,17.75
2018-07-20T00:28:40.704Z,17.75
2018-07-20T00:28:44.908Z,17.75
2018-07-20T00:28:49.008Z,17.75
2018-07-20T00:28:53.211Z,17.75
2018-07-20T00:28:57.305Z,17.75
2018-07-20T00:29:01.554Z,17.75
2018-07-20T00:29:05.757Z,17.75
2018-07-20T00:29:10.103Z,17.76
2018-07-20T00:29:14.206Z,17.76
2018-07-20T00:29:18.412Z,17.75
2018-07-20T00:29:22.615Z,17.75
2018-07-20T00:29:26.710Z,17.75
2018-07-20T00:29:30.912Z,17.76
2018-07-20T00:29:35.121Z,17.76
2018-07-20T00:29:39.319Z,17.76
2018-07-20T00:29:43.634Z,17.76
2018-07-20T00:29:47.836Z,17.76
2018-07-20T00:29:52.047Z,17.76
2018-07-20T00:29:56.359Z,17.76
2018-07-20T00:30:00.567Z,17.76
2018-07-20T00:30:04.718Z,17.76
2018-07-20T00:30:08.710Z,17.77
2018-07-20T00:30:13.022Z,17.77
2018-07-20T00:30:17.353Z,17.77
2018-07-20T00:30:21.657Z,17.77
2018-07-20T00:30:26.138Z,17.77
2018-07-20T00:30:30.613Z,17.76
2018-07-20T00:30:34.829Z,17.77
2018-07-20T00:30:39.144Z,17.76
2018-07-20T00:30:43.250Z,17.77
2018-07-20T00:30:47.564Z,17.77
2018-07-20T00:30:51.878Z,17.77
2018-07-20T00:30:56.184Z,17.77
2018-07-20T00:31:00.397Z,17.77
2018-07-20T00:31:04.498Z,17.77
2018-07-20T00:31:08.702Z,17.77
2018-07-20T00:31:12.903Z,17.78
2018-07-20T00:31:17.000Z,17.77
2018-07-20T00:31:21.314Z,17.78
2018-07-20T00:31:25.412Z,17.78
2018-07-20T00:31:29.622Z,17.78
2018-07-20T00:31:33.931Z,17.78
2018-07-20T00:31:38.239Z,17.78
2018-07-20T00:31:42.439Z,17.78
2018-07-20T00:31:46.646Z,17.78
2018-07-20T00:31:50.868Z,17.79
2018-07-20T00:31:55.069Z,17.79
2018-07-20T00:31:59.375Z,17.8
2018-07-20T00:32:03.477Z,17.79
2018-07-20T00:32:07.465Z,17.79
2018-07-20T00:32:11.779Z,17.79
2018-07-20T00:32:15.981Z,17.79
2018-07-20T00:32:20.292Z,17.79
2018-07-20T00:32:24.611Z,17.8
2018-07-20T00:32:28.715Z,17.8
2018-07-20T00:32:32.915Z,17.8
2018-07-20T00:32:37.233Z,17.8
2018-07-20T00:32:41.435Z,17.8
2018-07-20T00:32:45.764Z,17.8
2018-07-20T00:32:50.088Z,17.81
2018-07-20T00:32:54.292Z,17.8
2018-07-20T00:32:58.499Z,17.8
2018-07-20T00:33:02.593Z,17.81
2018-07-20T00:33:06.693Z,17.81
2018-07-20T00:33:11.002Z,17.81
2018-07-20T00:33:14.887Z,17.81
2018-07-20T00:33:18.775Z,17.81
2018-07-20T00:33:22.969Z,17.82
2018-07-20T00:33:27.290Z,17.81
2018-07-20T00:33:31.606Z,17.82
2018-07-20T00:33:35.915Z,17.82
2018-07-20T00:33:40.227Z,17.82
2018-07-20T00:33:44.430Z,17.82
2018-07-20T00:33:48.638Z,17.82
2018-07-20T00:33:52.840Z,17.82
2018-07-20T00:33:57.155Z,17.83
2018-07-20T00:34:01.364Z,17.83
2018-07-20T00:34:05.468Z,17.82
2018-07-20T00:34:09.670Z,17.82
2018-07-20T00:34:13.979Z,17.83
2018-07-20T00:34:18.191Z,17.83
2018-07-20T00:34:22.495Z,17.83
2018-07-20T00:34:26.591Z,17.83
2018-07-20T00:34:30.693Z,17.83
2018-07-20T00:34:35.001Z,17.83
2018-07-20T00:34:39.310Z,17.83
2018-07-20T00:34:43.406Z,17.83
2018-07-20T00:34:47.709Z,17.83
2018-07-20T00:34:52.019Z,17.84
2018-07-20T00:34:56.227Z,17.83
2018-07-20T00:35:00.541Z,17.83
2018-07-20T00:35:04.531Z,17.84
2018-07-20T00:35:08.634Z,17.83
2018-07-20T00:35:12.842Z,17.83
2018-07-20T00:35:17.038Z,17.84
2018-07-20T00:35:21.348Z,17.84
2018-07-20T00:35:25.553Z,17.84
2018-07-20T00:35:29.858Z,17.84
2018-07-20T00:35:33.964Z,17.85
2018-07-20T00:35:38.269Z,17.84
2018-07-20T00:35:42.477Z,17.84
2018-07-20T00:35:46.793Z,17.84
2018-07-20T00:35:50.993Z,17.84
2018-07-20T00:35:55.304Z,17.85
2018-07-20T00:35:59.652Z,17.84
2018-07-20T00:36:03.759Z,17.84
2018-07-20T00:36:07.746Z,17.85
2018-07-20T00:36:11.862Z,17.85
2018-07-20T00:36:15.957Z,17.85
2018-07-20T00:36:20.052Z,17.85
2018-07-20T00:36:24.370Z,17.85
2018-07-20T00:36:28.689Z,17.86
2018-07-20T00:36:32.888Z,17.86
2018-07-20T00:36:37.242Z,17.85
2018-07-20T00:36:41.559Z,17.85
2018-07-20T00:36:45.874Z,17.86
2018-07-20T00:36:49.979Z,17.86
2018-07-20T00:36:54.182Z,17.86
2018-07-20T00:36:58.385Z,17.86
2018-07-20T00:37:02.588Z,17.86
2018-07-20T00:37:06.682Z,17.86
2018-07-20T00:37:10.981Z,17.86
2018-07-20T00:37:15.186Z,17.86
2018-07-20T00:37:19.494Z,17.87
2018-07-20T00:37:23.476Z,17.87
2018-07-20T00:37:27.789Z,17.87
2018-07-20T00:37:32.093Z,17.87
2018-07-20T00:37:36.293Z,17.86
2018-07-20T00:37:40.491Z,17.87
2018-07-20T00:37:44.694Z,17.88
2018-07-20T00:37:48.787Z,17.87
2018-07-20T00:37:52.667Z,17.87
2018-07-20T00:37:56.861Z,17.88
2018-07-20T00:38:01.172Z,17.88
2018-07-20T00:38:05.482Z,17.88
2018-07-20T00:38:09.696Z,17.88
2018-07-20T00:38:13.793Z,17.89
2018-07-20T00:38:18.101Z,17.88
2018-07-20T00:38:22.306Z,17.89
2018-07-20T00:38:26.515Z,17.89
2018-07-20T00:38:30.745Z,17.89
2018-07-20T00:38:34.852Z,17.89
2018-07-20T00:38:39.059Z,17.89
2018-07-20T00:38:43.264Z,17.9
2018-07-20T00:38:47.468Z,17.89
2018-07-20T00:38:51.678Z,17.89
2018-07-20T00:38:55.663Z,17.89
2018-07-20T00:38:59.968Z,17.89
2018-07-20T00:39:04.063Z,17.9
2018-07-20T00:39:08.266Z,17.9
2018-07-20T00:39:12.582Z,17.89
2018-07-20T00:39:16.784Z,17.9
2018-07-20T00:39:21.112Z,17.9
2018-07-20T00:39:25.111Z,17.91
2018-07-20T00:39:29.115Z,17.9
2018-07-20T00:39:33.212Z,17.9
2018-07-20T00:39:37.523Z,17.91
2018-07-20T00:39:41.831Z,17.9
2018-07-20T00:39:46.137Z,17.91
2018-07-20T00:39:50.346Z,17.91
2018-07-20T00:39:54.438Z,17.91
2018-07-20T00:39:58.759Z,17.92
2018-07-20T00:40:03.022Z,17.91
2018-07-20T00:40:07.117Z,17.92
2018-07-20T00:40:11.108Z,17.92
2018-07-20T00:40:15.205Z,17.92
2018-07-20T00:40:19.301Z,17.92
2018-07-20T00:40:23.186Z,17.92
2018-07-20T00:40:27.494Z,17.92
2018-07-20T00:40:31.801Z,17.92
2018-07-20T00:40:36.121Z,17.93
2018-07-20T00:40:40.424Z,17.93
2018-07-20T00:40:44.735Z,17.93
2018-07-20T00:40:48.617Z,17.93
2018-07-20T00:40:52.924Z,17.94
2018-07-20T00:40:57.131Z,17.94
2018-07-20T00:41:01.335Z,17.94
2018-07-20T00:41:05.540Z,17.94
2018-07-20T00:41:09.799Z,17.95
2018-07-20T00:41:14.165Z,17.95
2018-07-20T00:41:18.401Z,17.94
2018-07-20T00:41:22.614Z,17.95
2018-07-20T00:41:26.820Z,17.95
2018-07-20T00:41:31.019Z,17.95
2018-07-20T00:41:35.332Z,17.95
2018-07-20T00:41:39.644Z,17.96
2018-07-20T00:41:43.953Z,17.96
2018-07-20T00:41:48.057Z,17.96
2018-07-20T00:41:52.370Z,17.96
2018-07-20T00:41:56.466Z,17.97
2018-07-20T00:42:00.679Z,17.97
2018-07-20T00:42:04.879Z,17.97
2018-07-20T00:42:09.009Z,17.96
2018-07-20T00:42:13.107Z,17.97
2018-07-20T00:42:17.414Z,17.97
2018-07-20T00:42:21.722Z,17.97
2018-07-20T00:42:25.815Z,17.98
2018-07-20T00:42:30.024Z,17.98
2018-07-20T00:42:34.335Z,17.98
2018-07-20T00:42:38.534Z,17.99
2018-07-20T00:42:42.740Z,17.99
2018-07-20T00:42:46.620Z,18
2018-07-20T00:42:50.717Z,17.99
2018-07-20T00:42:55.033Z,17.99
2018-07-20T00:42:59.126Z,17.99
2018-07-20T00:43:03.232Z,17.99
2018-07-20T00:43:07.332Z,17.99
2018-07-20T00:43:11.651Z,18
2018-07-20T00:43:15.852Z,18.01
2018-07-20T00:43:19.956Z,18
2018-07-20T00:43:24.257Z,18.01
2018-07-20T00:43:28.464Z,18.01
2018-07-20T00:43:32.681Z,18.02
2018-07-20T00:43:36.886Z,18.02
2018-07-20T00:43:41.089Z,18.02
2018-07-20T00:43:45.398Z,18.02
2018-07-20T00:43:49.389Z,18.03
2018-07-20T00:43:53.709Z,18.03
2018-07-20T00:43:57.907Z,18.03
2018-07-20T00:44:02.007Z,18.04
2018-07-20T00:44:06.110Z,18.04
2018-07-20T00:44:10.197Z,18.04
2018-07-20T00:44:14.194Z,18.03
2018-07-20T00:44:18.417Z,18.05
2018-07-20T00:44:22.726Z,18.05
2018-07-20T00:44:26.824Z,18.05
2018-07-20T00:44:31.023Z,18.05
2018-07-20T00:44:35.223Z,18.05
2018-07-20T00:44:39.543Z,18.06
2018-07-20T00:44:43.742Z,18.06
2018-07-20T00:44:47.834Z,18.07
2018-07-20T00:44:51.822Z,18.06
2018-07-20T00:44:56.017Z,18.06
2018-07-20T00:45:00.316Z,18.06
2018-07-20T00:45:04.419Z,18.07
2018-07-20T00:45:08.637Z,18.08
2018-07-20T00:45:12.836Z,18.08
2018-07-20T00:45:16.928Z,18.08
2018-07-20T00:45:21.137Z,18.08
2018-07-20T00:45:25.230Z,18.08
2018-07-20T00:45:29.436Z,18.09
2018-07-20T00:45:33.744Z,18.09
2018-07-20T00:45:37.842Z,18.1
2018-07-20T00:45:42.044Z,18.1
2018-07-20T00:45:46.139Z,18.1
2018-07-20T00:45:50.349Z,18.11
2018-07-20T00:45:54.458Z,18.1
2018-07-20T00:45:58.770Z,18.11
2018-07-20T00:46:02.866Z,18.11
2018-07-20T00:46:06.964Z,18.11
2018-07-20T00:46:11.172Z,18.12
2018-07-20T00:46:15.474Z,18.12
2018-07-20T00:46:19.788Z,18.12
2018-07-20T00:46:23.995Z,18.12
2018-07-20T00:46:28.202Z,18.12
2018-07-20T00:46:32.503Z,18.13
2018-07-20T00:46:36.708Z,18.12
2018-07-20T00:46:41.012Z,18.13
2018-07-20T00:46:45.320Z,18.13
2018-07-20T00:46:49.517Z,18.13
2018-07-20T00:46:53.716Z,18.14
2018-07-20T00:46:57.822Z,18.14
2018-07-20T00:47:02.028Z,18.14
2018-07-20T00:47:06.338Z,18.14
2018-07-20T00:47:10.548Z,18.15
2018-07-20T00:47:14.748Z,18.15
2018-07-20T00:47:18.970Z,18.15
2018-07-20T00:47:23.168Z,18.15
2018-07-20T00:47:27.376Z,18.15
2018-07-20T00:47:31.698Z,18.15
2018-07-20T00:47:36.005Z,18.15
2018-07-20T00:47:40.109Z,18.17
2018-07-20T00:47:44.426Z,18.16
2018-07-20T00:47:48.630Z,18.17
2018-07-20T00:47:52.772Z,18.17
2018-07-20T00:47:57.083Z,18.17
2018-07-20T00:48:01.398Z,18.17
2018-07-20T00:48:05.493Z,18.17
2018-07-20T00:48:09.481Z,18.18
2018-07-20T00:48:13.692Z,18.17
2018-07-20T00:48:17.789Z,18.18
2018-07-20T00:48:21.991Z,18.18
2018-07-20T00:48:26.303Z,18.18
2018-07-20T00:48:30.308Z,18.18
2018-07-20T00:48:34.620Z,18.18
2018-07-20T00:48:38.818Z,18.18
2018-07-20T00:48:43.139Z,18.19
2018-07-20T00:48:47.453Z,18.19
2018-07-20T00:48:51.665Z,18.2
2018-07-20T00:48:55.861Z,18.19
2018-07-20T00:48:59.852Z,18.19
2018-07-20T00:49:04.053Z,18.19
2018-07-20T00:49:08.299Z,18.19
2018-07-20T00:49:12.502Z,18.2
2018-07-20T00:49:16.817Z,18.2
2018-07-20T00:49:21.022Z,18.2
2018-07-20T00:49:25.346Z,18.2
2018-07-20T00:49:29.550Z,18.2
2018-07-20T00:49:33.927Z,18.21
2018-07-20T00:49:38.129Z,18.21
2018-07-20T00:49:42.339Z,18.21
2018-07-20T00:49:46.543Z,18.21
2018-07-20T00:49:50.849Z,18.21
2018-07-20T00:49:55.155Z,18.21
2018-07-20T00:49:59.140Z,18.21
2018-07-20T00:50:03.345Z,18.22
2018-07-20T00:50:07.336Z,18.21
2018-07-20T00:50:11.642Z,18.22
2018-07-20T00:50:15.953Z,18.22
2018-07-20T00:50:20.049Z,18.22
2018-07-20T00:50:24.355Z,18.22
2018-07-20T00:50:28.562Z,18.22
2018-07-20T00:50:32.656Z,18.22
2018-07-20T00:50:36.908Z,18.22
2018-07-20T00:50:41.224Z,18.23
2018-07-20T00:50:45.422Z,18.23
2018-07-20T00:50:49.522Z,18.22
2018-07-20T00:50:53.618Z,18.24
2018-07-20T00:50:57.926Z,18.23
2018-07-20T00:51:02.129Z,18.23
2018-07-20T00:51:06.236Z,18.23
2018-07-20T00:51:10.538Z,18.24
2018-07-20T00:51:14.848Z,18.23
2018-07-20T00:51:19.166Z,18.23
2018-07-20T00:51:23.371Z,18.24
2018-07-20T00:51:27.466Z,18.23
2018-07-20T00:51:31.557Z,18.24
2018-07-20T00:51:35.654Z,18.24
2018-07-20T00:51:39.963Z,18.24
2018-07-20T00:51:44.165Z,18.24
2018-07-20T00:51:48.473Z,18.25
2018-07-20T00:51:52.777Z,18.24
2018-07-20T00:51:56.977Z,18.25
2018-07-20T00:52:01.180Z,18.25
2018-07-20T00:52:05.284Z,18.25
2018-07-20T00:52:09.384Z,18.26
2018-07-20T00:52:13.699Z,18.26
2018-07-20T00:52:18.014Z,18.25
2018-07-20T00:52:22.326Z,18.24
2018-07-20T00:52:26.632Z,18.25
2018-07-20T00:52:30.733Z,18.26
2018-07-20T00:52:34.940Z,18.25
2018-07-20T00:52:39.152Z,18.25
2018-07-20T00:52:43.358Z,18.25
2018-07-20T00:52:47.662Z,18.25
2018-07-20T00:52:51.866Z,18.26
2018-07-20T00:52:56.080Z,18.26
2018-07-20T00:53:00.279Z,18.26
2018-07-20T00:53:04.269Z,18.25
2018-07-20T00:53:08.470Z,18.26
2018-07-20T00:53:12.675Z,18.25
2018-07-20T00:53:16.985Z,18.26
2018-07-20T00:53:21.203Z,18.26
2018-07-20T00:53:25.513Z,18.25
2018-07-20T00:53:29.821Z,18.25
2018-07-20T00:53:34.027Z,18.25
2018-07-20T00:53:38.340Z,18.26
2018-07-20T00:53:42.655Z,18.26
2018-07-20T00:53:46.905Z,18.25
2018-07-20T00:53:51.117Z,18.25
2018-07-20T00:53:55.217Z,18.25
2018-07-20T00:53:59.527Z,18.26
2018-07-20T00:54:03.408Z,18.25
2018-07-20T00:54:07.721Z,18.25
2018-07-20T00:54:11.921Z,18.26
2018-07-20T00:54:16.226Z,18.25
2018-07-20T00:54:20.532Z,18.25